sensor_id;sensor_type;location;lat;lon;timestamp;P1;durP1;ratioP1;P2;durP2;ratioP2
2416;SDS011;1219;48.736;9.330;2023-09-30T00:00:54;6.33;;;3.83;;
2416;SDS011;1219;48.736;9.330;2023-09-30T00:03:20;5.63;;;3.70;;
2416;SDS011;1219;48.736;9.330;2023-09-30T00:05:46;4.17;;;2.40;;
2416;SDS011;1219;48.736;9.330;2023-09-30T00:08:12;4.97;;;3.20;;
2416;SDS011;1219;48.736;9.330;2023-09-30T00:10:38;4.97;;;3.00;;
2416;SDS011;1219;48.736;9.330;2023-09-30T00:13:04;6.70;;;4.07;;
2416;SDS011;1219;48.736;9.330;2023-09-30T00:15:31;4.60;;;3.30;;
2416;SDS011;1219;48.736;9.330;2023-09-30T00:17:57;6.63;;;3.33;;
2416;SDS011;1219;48.736;9.330;2023-09-30T00:20:23;8.40;;;3.53;;
2416;SDS011;1219;48.736;9.330;2023-09-30T00:22:49;5.23;;;3.63;;
2416;SDS011;1219;48.736;9.330;2023-09-30T00:25:15;3.20;;;2.50;;
2416;SDS011;1219;48.736;9.330;2023-09-30T00:27:41;3.80;;;3.13;;
2416;SDS011;1219;48.736;9.330;2023-09-30T00:30:07;3.30;;;2.60;;
2416;SDS011;1219;48.736;9.330;2023-09-30T00:32:33;5.83;;;3.20;;
2416;SDS011;1219;48.736;9.330;2023-09-30T00:35:02;4.80;;;3.00;;
2416;SDS011;1219;48.736;9.330;2023-09-30T00:37:29;5.90;;;3.40;;
2416;SDS011;1219;48.736;9.330;2023-09-30T00:39:55;3.73;;;3.00;;
2416;SDS011;1219;48.736;9.330;2023-09-30T00:42:21;2.83;;;2.53;;
2416;SDS011;1219;48.736;9.330;2023-09-30T00:44:47;3.50;;;3.00;;
2416;SDS011;1219;48.736;9.330;2023-09-30T00:47:15;8.50;;;2.73;;
2416;SDS011;1219;48.736;9.330;2023-09-30T00:49:41;4.00;;;2.97;;
2416;SDS011;1219;48.736;9.330;2023-09-30T00:52:08;6.67;;;2.50;;
2416;SDS011;1219;48.736;9.330;2023-09-30T00:54:34;5.93;;;3.03;;
2416;SDS011;1219;48.736;9.330;2023-09-30T00:57:02;4.70;;;3.07;;
2416;SDS011;1219;48.736;9.330;2023-09-30T00:59:28;4.33;;;2.70;;
2416;SDS011;1219;48.736;9.330;2023-09-30T01:01:56;3.00;;;2.67;;
2416;SDS011;1219;48.736;9.330;2023-09-30T01:04:22;4.13;;;2.60;;
2416;SDS011;1219;48.736;9.330;2023-09-30T01:06:49;3.23;;;2.50;;
2416;SDS011;1219;48.736;9.330;2023-09-30T01:09:15;5.10;;;2.57;;
2416;SDS011;1219;48.736;9.330;2023-09-30T01:11:41;4.07;;;2.47;;
2416;SDS011;1219;48.736;9.330;2023-09-30T01:14:30;3.53;;;2.20;;
2416;SDS011;1219;48.736;9.330;2023-09-30T01:16:54;3.73;;;2.17;;
2416;SDS011;1219;48.736;9.330;2023-09-30T01:19:20;2.20;;;2.00;;
2416;SDS011;1219;48.736;9.330;2023-09-30T01:21:46;9.07;;;3.00;;
2416;SDS011;1219;48.736;9.330;2023-09-30T01:24:15;2.90;;;1.97;;
2416;SDS011;1219;48.736;9.330;2023-09-30T01:26:41;2.97;;;2.00;;
2416;SDS011;1219;48.736;9.330;2023-09-30T01:29:10;2.50;;;1.90;;
2416;SDS011;1219;48.736;9.330;2023-09-30T01:31:36;2.53;;;2.33;;
2416;SDS011;1219;48.736;9.330;2023-09-30T01:34:02;2.70;;;2.27;;
2416;SDS011;1219;48.736;9.330;2023-09-30T01:36:28;4.70;;;2.20;;
2416;SDS011;1219;48.736;9.330;2023-09-30T01:38:54;1.83;;;1.73;;
2416;SDS011;1219;48.736;9.330;2023-09-30T01:41:20;2.50;;;2.10;;
2416;SDS011;1219;48.736;9.330;2023-09-30T01:43:46;2.10;;;1.90;;
2416;SDS011;1219;48.736;9.330;2023-09-30T01:46:12;2.50;;;1.90;;
2416;SDS011;1219;48.736;9.330;2023-09-30T01:48:38;2.53;;;2.23;;
2416;SDS011;1219;48.736;9.330;2023-09-30T01:51:04;3.00;;;2.33;;
2416;SDS011;1219;48.736;9.330;2023-09-30T01:53:31;2.27;;;1.80;;
2416;SDS011;1219;48.736;9.330;2023-09-30T01:55:57;2.50;;;2.30;;
2416;SDS011;1219;48.736;9.330;2023-09-30T01:58:23;3.00;;;2.13;;
2416;SDS011;1219;48.736;9.330;2023-09-30T02:00:50;2.90;;;2.00;;
2416;SDS011;1219;48.736;9.330;2023-09-30T02:03:16;2.30;;;1.90;;
2416;SDS011;1219;48.736;9.330;2023-09-30T02:05:42;3.60;;;2.60;;
2416;SDS011;1219;48.736;9.330;2023-09-30T02:08:08;2.37;;;2.17;;
2416;SDS011;1219;48.736;9.330;2023-09-30T02:10:34;2.80;;;2.47;;
2416;SDS011;1219;48.736;9.330;2023-09-30T02:13:01;2.87;;;2.23;;
2416;SDS011;1219;48.736;9.330;2023-09-30T02:15:30;3.47;;;2.97;;
2416;SDS011;1219;48.736;9.330;2023-09-30T02:17:56;2.37;;;1.87;;
2416;SDS011;1219;48.736;9.330;2023-09-30T02:20:22;2.60;;;2.40;;
2416;SDS011;1219;48.736;9.330;2023-09-30T02:22:50;3.00;;;2.70;;
2416;SDS011;1219;48.736;9.330;2023-09-30T02:25:17;3.83;;;2.60;;
2416;SDS011;1219;48.736;9.330;2023-09-30T02:27:43;2.80;;;2.60;;
2416;SDS011;1219;48.736;9.330;2023-09-30T02:30:10;3.23;;;2.20;;
2416;SDS011;1219;48.736;9.330;2023-09-30T02:32:39;2.70;;;2.10;;
2416;SDS011;1219;48.736;9.330;2023-09-30T02:35:08;3.50;;;2.87;;
2416;SDS011;1219;48.736;9.330;2023-09-30T02:37:36;3.63;;;2.53;;
2416;SDS011;1219;48.736;9.330;2023-09-30T02:40:02;2.93;;;2.20;;
2416;SDS011;1219;48.736;9.330;2023-09-30T02:42:30;2.20;;;2.00;;
2416;SDS011;1219;48.736;9.330;2023-09-30T02:44:56;9.80;;;2.77;;
2416;SDS011;1219;48.736;9.330;2023-09-30T02:47:22;4.43;;;2.43;;
2416;SDS011;1219;48.736;9.330;2023-09-30T02:49:48;4.50;;;2.70;;
2416;SDS011;1219;48.736;9.330;2023-09-30T02:52:14;2.33;;;2.13;;
2416;SDS011;1219;48.736;9.330;2023-09-30T02:54:40;4.00;;;2.77;;
2416;SDS011;1219;48.736;9.330;2023-09-30T02:57:06;3.00;;;2.70;;
2416;SDS011;1219;48.736;9.330;2023-09-30T02:59:33;3.77;;;2.13;;
2416;SDS011;1219;48.736;9.330;2023-09-30T03:01:59;3.00;;;2.60;;
2416;SDS011;1219;48.736;9.330;2023-09-30T03:04:25;3.17;;;2.87;;
2416;SDS011;1219;48.736;9.330;2023-09-30T03:06:53;2.87;;;2.37;;
2416;SDS011;1219;48.736;9.330;2023-09-30T03:09:21;3.03;;;2.73;;
2416;SDS011;1219;48.736;9.330;2023-09-30T03:11:47;4.50;;;2.50;;
2416;SDS011;1219;48.736;9.330;2023-09-30T03:14:13;6.90;;;3.07;;
2416;SDS011;1219;48.736;9.330;2023-09-30T03:16:39;2.80;;;2.60;;
2416;SDS011;1219;48.736;9.330;2023-09-30T03:19:06;5.90;;;3.27;;
2416;SDS011;1219;48.736;9.330;2023-09-30T03:21:33;3.60;;;2.83;;
2416;SDS011;1219;48.736;9.330;2023-09-30T03:24:00;3.60;;;2.53;;
2416;SDS011;1219;48.736;9.330;2023-09-30T03:26:28;4.00;;;2.60;;
2416;SDS011;1219;48.736;9.330;2023-09-30T03:28:54;4.10;;;2.70;;
2416;SDS011;1219;48.736;9.330;2023-09-30T03:31:20;3.20;;;2.50;;
2416;SDS011;1219;48.736;9.330;2023-09-30T03:33:47;4.80;;;2.60;;
2416;SDS011;1219;48.736;9.330;2023-09-30T03:36:13;3.17;;;2.40;;
2416;SDS011;1219;48.736;9.330;2023-09-30T03:38:40;7.53;;;2.70;;
2416;SDS011;1219;48.736;9.330;2023-09-30T03:41:06;4.17;;;2.47;;
2416;SDS011;1219;48.736;9.330;2023-09-30T03:43:33;2.60;;;2.40;;
2416;SDS011;1219;48.736;9.330;2023-09-30T03:46:05;3.23;;;2.93;;
2416;SDS011;1219;48.736;9.330;2023-09-30T03:48:31;3.50;;;3.20;;
2416;SDS011;1219;48.736;9.330;2023-09-30T03:50:57;2.40;;;2.20;;
2416;SDS011;1219;48.736;9.330;2023-09-30T03:53:23;4.63;;;2.43;;
2416;SDS011;1219;48.736;9.330;2023-09-30T03:55:51;3.13;;;2.67;;
2416;SDS011;1219;48.736;9.330;2023-09-30T03:58:17;4.30;;;3.27;;
2416;SDS011;1219;48.736;9.330;2023-09-30T04:00:43;4.80;;;2.80;;
2416;SDS011;1219;48.736;9.330;2023-09-30T04:03:09;3.97;;;3.53;;
2416;SDS011;1219;48.736;9.330;2023-09-30T04:05:35;4.70;;;2.67;;
2416;SDS011;1219;48.736;9.330;2023-09-30T04:08:02;3.73;;;2.83;;
2416;SDS011;1219;48.736;9.330;2023-09-30T04:10:28;3.00;;;2.80;;
2416;SDS011;1219;48.736;9.330;2023-09-30T04:12:57;4.57;;;3.03;;
2416;SDS011;1219;48.736;9.330;2023-09-30T04:15:23;5.70;;;2.97;;
2416;SDS011;1219;48.736;9.330;2023-09-30T04:17:49;6.53;;;3.43;;
2416;SDS011;1219;48.736;9.330;2023-09-30T04:20:16;2.70;;;2.50;;
2416;SDS011;1219;48.736;9.330;2023-09-30T04:22:48;7.10;;;3.40;;
2416;SDS011;1219;48.736;9.330;2023-09-30T04:25:14;3.37;;;2.70;;
2416;SDS011;1219;48.736;9.330;2023-09-30T04:27:41;4.53;;;2.87;;
2416;SDS011;1219;48.736;9.330;2023-09-30T04:30:07;4.27;;;3.60;;
2416;SDS011;1219;48.736;9.330;2023-09-30T04:32:36;7.43;;;3.10;;
2416;SDS011;1219;48.736;9.330;2023-09-30T04:35:02;3.40;;;3.10;;
2416;SDS011;1219;48.736;9.330;2023-09-30T04:37:29;3.80;;;3.40;;
2416;SDS011;1219;48.736;9.330;2023-09-30T04:39:55;4.80;;;3.47;;
2416;SDS011;1219;48.736;9.330;2023-09-30T04:42:21;3.30;;;2.77;;
2416;SDS011;1219;48.736;9.330;2023-09-30T04:44:50;4.00;;;3.23;;
2416;SDS011;1219;48.736;9.330;2023-09-30T04:47:16;4.67;;;3.07;;
2416;SDS011;1219;48.736;9.330;2023-09-30T04:49:43;6.40;;;3.90;;
2416;SDS011;1219;48.736;9.330;2023-09-30T04:52:09;5.20;;;3.33;;
2416;SDS011;1219;48.736;9.330;2023-09-30T04:54:36;5.73;;;3.70;;
2416;SDS011;1219;48.736;9.330;2023-09-30T04:57:02;4.27;;;3.20;;
2416;SDS011;1219;48.736;9.330;2023-09-30T04:59:28;6.43;;;3.77;;
2416;SDS011;1219;48.736;9.330;2023-09-30T05:01:55;4.90;;;3.20;;
2416;SDS011;1219;48.736;9.330;2023-09-30T05:04:21;3.80;;;3.03;;
2416;SDS011;1219;48.736;9.330;2023-09-30T05:06:49;3.90;;;3.30;;
2416;SDS011;1219;48.736;9.330;2023-09-30T05:09:15;3.10;;;2.90;;
2416;SDS011;1219;48.736;9.330;2023-09-30T05:11:41;3.97;;;2.70;;
2416;SDS011;1219;48.736;9.330;2023-09-30T05:14:07;3.13;;;2.83;;
2416;SDS011;1219;48.736;9.330;2023-09-30T05:16:33;4.33;;;3.23;;
2416;SDS011;1219;48.736;9.330;2023-09-30T05:18:59;4.40;;;3.30;;
2416;SDS011;1219;48.736;9.330;2023-09-30T05:21:25;3.90;;;3.17;;
2416;SDS011;1219;48.736;9.330;2023-09-30T05:23:51;4.27;;;3.20;;
2416;SDS011;1219;48.736;9.330;2023-09-30T05:26:18;4.27;;;3.50;;
2416;SDS011;1219;48.736;9.330;2023-09-30T05:28:43;4.00;;;3.23;;
2416;SDS011;1219;48.736;9.330;2023-09-30T05:31:09;5.00;;;3.90;;
2416;SDS011;1219;48.736;9.330;2023-09-30T05:33:36;6.23;;;3.70;;
2416;SDS011;1219;48.736;9.330;2023-09-30T05:36:02;4.90;;;4.13;;
2416;SDS011;1219;48.736;9.330;2023-09-30T05:38:29;4.67;;;3.43;;
2416;SDS011;1219;48.736;9.330;2023-09-30T05:40:56;5.53;;;3.50;;
2416;SDS011;1219;48.736;9.330;2023-09-30T05:43:24;7.63;;;3.87;;
2416;SDS011;1219;48.736;9.330;2023-09-30T05:45:50;4.13;;;3.80;;
2416;SDS011;1219;48.736;9.330;2023-09-30T05:48:19;7.00;;;3.80;;
2416;SDS011;1219;48.736;9.330;2023-09-30T05:50:46;6.87;;;3.00;;
2416;SDS011;1219;48.736;9.330;2023-09-30T05:53:12;8.60;;;3.33;;
2416;SDS011;1219;48.736;9.330;2023-09-30T05:55:39;4.23;;;3.77;;
2416;SDS011;1219;48.736;9.330;2023-09-30T05:58:08;5.13;;;3.90;;
2416;SDS011;1219;48.736;9.330;2023-09-30T06:00:34;9.37;;;3.17;;
2416;SDS011;1219;48.736;9.330;2023-09-30T06:03:01;6.27;;;4.13;;
2416;SDS011;1219;48.736;9.330;2023-09-30T06:05:30;5.10;;;3.73;;
2416;SDS011;1219;48.736;9.330;2023-09-30T06:07:56;6.53;;;3.53;;
2416;SDS011;1219;48.736;9.330;2023-09-30T06:10:22;4.40;;;4.07;;
2416;SDS011;1219;48.736;9.330;2023-09-30T06:12:51;7.80;;;4.30;;
2416;SDS011;1219;48.736;9.330;2023-09-30T06:15:20;4.83;;;3.87;;
2416;SDS011;1219;48.736;9.330;2023-09-30T06:17:53;4.97;;;3.50;;
2416;SDS011;1219;48.736;9.330;2023-09-30T06:20:19;4.70;;;3.60;;
2416;SDS011;1219;48.736;9.330;2023-09-30T06:22:47;4.13;;;3.73;;
2416;SDS011;1219;48.736;9.330;2023-09-30T06:25:17;7.50;;;3.70;;
2416;SDS011;1219;48.736;9.330;2023-09-30T06:27:43;6.87;;;5.00;;
2416;SDS011;1219;48.736;9.330;2023-09-30T06:30:09;6.70;;;4.40;;
2416;SDS011;1219;48.736;9.330;2023-09-30T06:32:35;7.10;;;4.83;;
2416;SDS011;1219;48.736;9.330;2023-09-30T06:35:02;5.27;;;3.87;;
2416;SDS011;1219;48.736;9.330;2023-09-30T06:37:28;7.17;;;4.87;;
2416;SDS011;1219;48.736;9.330;2023-09-30T06:39:54;5.33;;;4.60;;
2416;SDS011;1219;48.736;9.330;2023-09-30T06:42:21;8.90;;;3.90;;
2416;SDS011;1219;48.736;9.330;2023-09-30T06:44:47;5.00;;;4.60;;
2416;SDS011;1219;48.736;9.330;2023-09-30T06:47:13;5.23;;;3.70;;
2416;SDS011;1219;48.736;9.330;2023-09-30T06:49:39;4.00;;;3.10;;
2416;SDS011;1219;48.736;9.330;2023-09-30T06:52:05;4.57;;;3.40;;
2416;SDS011;1219;48.736;9.330;2023-09-30T06:54:32;4.23;;;3.23;;
2416;SDS011;1219;48.736;9.330;2023-09-30T06:56:58;5.70;;;3.43;;
2416;SDS011;1219;48.736;9.330;2023-09-30T06:59:24;6.03;;;2.80;;
2416;SDS011;1219;48.736;9.330;2023-09-30T07:01:50;3.80;;;3.40;;
2416;SDS011;1219;48.736;9.330;2023-09-30T07:04:16;4.93;;;3.27;;
2416;SDS011;1219;48.736;9.330;2023-09-30T07:06:42;2.83;;;2.50;;
2416;SDS011;1219;48.736;9.330;2023-09-30T07:09:11;4.30;;;3.40;;
2416;SDS011;1219;48.736;9.330;2023-09-30T07:11:37;3.33;;;2.60;;
2416;SDS011;1219;48.736;9.330;2023-09-30T07:14:03;3.60;;;2.50;;
2416;SDS011;1219;48.736;9.330;2023-09-30T07:16:29;4.10;;;2.93;;
2416;SDS011;1219;48.736;9.330;2023-09-30T07:18:55;5.40;;;3.23;;
2416;SDS011;1219;48.736;9.330;2023-09-30T07:21:22;6.97;;;2.87;;
2416;SDS011;1219;48.736;9.330;2023-09-30T07:23:48;4.63;;;2.90;;
2416;SDS011;1219;48.736;9.330;2023-09-30T07:26:14;4.40;;;3.03;;
2416;SDS011;1219;48.736;9.330;2023-09-30T07:28:39;4.13;;;2.60;;
2416;SDS011;1219;48.736;9.330;2023-09-30T07:31:06;3.63;;;2.80;;
2416;SDS011;1219;48.736;9.330;2023-09-30T07:33:32;3.77;;;3.10;;
2416;SDS011;1219;48.736;9.330;2023-09-30T07:35:58;7.50;;;3.13;;
2416;SDS011;1219;48.736;9.330;2023-09-30T07:38:24;10.13;;;3.83;;
2416;SDS011;1219;48.736;9.330;2023-09-30T07:40:49;5.13;;;3.07;;
2416;SDS011;1219;48.736;9.330;2023-09-30T07:43:15;3.47;;;3.17;;
2416;SDS011;1219;48.736;9.330;2023-09-30T07:45:42;6.73;;;3.60;;
2416;SDS011;1219;48.736;9.330;2023-09-30T07:48:08;4.70;;;2.60;;
2416;SDS011;1219;48.736;9.330;2023-09-30T07:50:35;6.27;;;3.07;;
2416;SDS011;1219;48.736;9.330;2023-09-30T07:53:01;7.17;;;3.80;;
2416;SDS011;1219;48.736;9.330;2023-09-30T07:55:27;3.77;;;2.73;;
2416;SDS011;1219;48.736;9.330;2023-09-30T07:57:53;4.47;;;2.60;;
2416;SDS011;1219;48.736;9.330;2023-09-30T08:00:22;3.57;;;3.27;;
2416;SDS011;1219;48.736;9.330;2023-09-30T08:02:48;3.80;;;2.90;;
2416;SDS011;1219;48.736;9.330;2023-09-30T08:05:15;3.47;;;3.17;;
2416;SDS011;1219;48.736;9.330;2023-09-30T08:07:41;9.50;;;3.60;;
2416;SDS011;1219;48.736;9.330;2023-09-30T08:10:08;3.27;;;2.60;;
2416;SDS011;1219;48.736;9.330;2023-09-30T08:12:38;4.33;;;3.50;;
2416;SDS011;1219;48.736;9.330;2023-09-30T08:15:04;3.03;;;2.70;;
2416;SDS011;1219;48.736;9.330;2023-09-30T08:17:31;4.70;;;3.33;;
2416;SDS011;1219;48.736;9.330;2023-09-30T08:19:58;4.63;;;3.30;;
2416;SDS011;1219;48.736;9.330;2023-09-30T08:22:24;6.70;;;3.30;;
2416;SDS011;1219;48.736;9.330;2023-09-30T08:24:53;5.37;;;3.37;;
2416;SDS011;1219;48.736;9.330;2023-09-30T08:27:19;3.77;;;3.47;;
2416;SDS011;1219;48.736;9.330;2023-09-30T08:29:45;6.37;;;4.40;;
2416;SDS011;1219;48.736;9.330;2023-09-30T08:32:11;4.97;;;3.47;;
2416;SDS011;1219;48.736;9.330;2023-09-30T08:34:37;4.47;;;3.43;;
2416;SDS011;1219;48.736;9.330;2023-09-30T08:37:03;6.90;;;3.77;;
2416;SDS011;1219;48.736;9.330;2023-09-30T08:39:29;6.20;;;4.13;;
2416;SDS011;1219;48.736;9.330;2023-09-30T08:41:55;5.37;;;3.60;;
2416;SDS011;1219;48.736;9.330;2023-09-30T08:44:21;5.10;;;3.90;;
2416;SDS011;1219;48.736;9.330;2023-09-30T08:46:48;7.33;;;4.00;;
2416;SDS011;1219;48.736;9.330;2023-09-30T08:49:14;3.63;;;3.33;;
2416;SDS011;1219;48.736;9.330;2023-09-30T08:51:40;6.37;;;4.03;;
2416;SDS011;1219;48.736;9.330;2023-09-30T08:54:07;4.30;;;3.90;;
2416;SDS011;1219;48.736;9.330;2023-09-30T08:56:33;3.87;;;3.40;;
2416;SDS011;1219;48.736;9.330;2023-09-30T08:59:00;8.47;;;4.03;;
2416;SDS011;1219;48.736;9.330;2023-09-30T09:01:27;8.67;;;3.20;;
2416;SDS011;1219;48.736;9.330;2023-09-30T09:03:53;4.33;;;3.77;;
2416;SDS011;1219;48.736;9.330;2023-09-30T09:06:20;4.23;;;3.63;;
2416;SDS011;1219;48.736;9.330;2023-09-30T09:08:46;4.10;;;3.70;;
2416;SDS011;1219;48.736;9.330;2023-09-30T09:11:12;4.00;;;3.63;;
2416;SDS011;1219;48.736;9.330;2023-09-30T09:14:12;5.13;;;4.73;;
2416;SDS011;1219;48.736;9.330;2023-09-30T09:16:32;6.33;;;4.67;;
2416;SDS011;1219;48.736;9.330;2023-09-30T09:18:58;5.57;;;4.00;;
2416;SDS011;1219;48.736;9.330;2023-09-30T09:21:24;4.07;;;3.33;;
2416;SDS011;1219;48.736;9.330;2023-09-30T09:23:53;5.20;;;3.93;;
2416;SDS011;1219;48.736;9.330;2023-09-30T09:28:58;6.27;;;4.27;;
2416;SDS011;1219;48.736;9.330;2023-09-30T09:31:25;9.33;;;3.87;;
2416;SDS011;1219;48.736;9.330;2023-09-30T09:33:51;4.17;;;3.80;;
2416;SDS011;1219;48.736;9.330;2023-09-30T09:36:18;4.10;;;3.80;;
2416;SDS011;1219;48.736;9.330;2023-09-30T09:38:45;4.77;;;3.90;;
2416;SDS011;1219;48.736;9.330;2023-09-30T09:41:12;5.00;;;3.50;;
2416;SDS011;1219;48.736;9.330;2023-09-30T09:43:38;3.47;;;3.17;;
2416;SDS011;1219;48.736;9.330;2023-09-30T09:46:07;5.43;;;4.07;;
2416;SDS011;1219;48.736;9.330;2023-09-30T09:48:35;4.60;;;4.20;;
2416;SDS011;1219;48.736;9.330;2023-09-30T09:51:01;4.57;;;3.40;;
2416;SDS011;1219;48.736;9.330;2023-09-30T09:53:29;4.80;;;3.27;;
2416;SDS011;1219;48.736;9.330;2023-09-30T09:55:58;4.53;;;3.50;;
2416;SDS011;1219;48.736;9.330;2023-09-30T09:58:25;4.73;;;3.57;;
2416;SDS011;1219;48.736;9.330;2023-09-30T10:00:56;4.17;;;3.47;;
2416;SDS011;1219;48.736;9.330;2023-09-30T10:03:23;6.07;;;3.73;;
2416;SDS011;1219;48.736;9.330;2023-09-30T10:05:49;3.50;;;3.20;;
2416;SDS011;1219;48.736;9.330;2023-09-30T10:08:15;5.33;;;3.80;;
2416;SDS011;1219;48.736;9.330;2023-09-30T10:10:42;3.73;;;3.33;;
2416;SDS011;1219;48.736;9.330;2023-09-30T10:13:27;4.37;;;3.97;;
2416;SDS011;1219;48.736;9.330;2023-09-30T10:15:56;3.10;;;2.80;;
2416;SDS011;1219;48.736;9.330;2023-09-30T10:18:22;3.53;;;3.23;;
2416;SDS011;1219;48.736;9.330;2023-09-30T10:20:48;7.57;;;3.37;;
2416;SDS011;1219;48.736;9.330;2023-09-30T10:25:44;6.93;;;3.97;;
2416;SDS011;1219;48.736;9.330;2023-09-30T10:31:16;5.47;;;3.60;;
2416;SDS011;1219;48.736;9.330;2023-09-30T10:36:31;4.77;;;3.77;;
2416;SDS011;1219;48.736;9.330;2023-09-30T10:38:57;4.47;;;3.53;;
2416;SDS011;1219;48.736;9.330;2023-09-30T10:46:52;3.50;;;3.20;;
2416;SDS011;1219;48.736;9.330;2023-09-30T10:51:47;3.70;;;3.17;;
2416;SDS011;1219;48.736;9.330;2023-09-30T10:54:13;3.57;;;3.27;;
2416;SDS011;1219;48.736;9.330;2023-09-30T10:56:39;4.93;;;3.20;;
2416;SDS011;1219;48.736;9.330;2023-09-30T10:59:05;4.80;;;3.07;;
2416;SDS011;1219;48.736;9.330;2023-09-30T11:01:32;4.00;;;3.30;;
2416;SDS011;1219;48.736;9.330;2023-09-30T11:04:02;5.60;;;3.63;;
2416;SDS011;1219;48.736;9.330;2023-09-30T11:06:29;6.70;;;4.20;;
2416;SDS011;1219;48.736;9.330;2023-09-30T11:08:56;4.30;;;3.43;;
2416;SDS011;1219;48.736;9.330;2023-09-30T11:14:01;3.87;;;3.47;;
2416;SDS011;1219;48.736;9.330;2023-09-30T11:16:27;5.33;;;4.70;;
2416;SDS011;1219;48.736;9.330;2023-09-30T11:18:53;14.33;;;5.80;;
2416;SDS011;1219;48.736;9.330;2023-09-30T11:21:19;6.87;;;4.27;;
2416;SDS011;1219;48.736;9.330;2023-09-30T11:23:45;4.90;;;4.13;;
2416;SDS011;1219;48.736;9.330;2023-09-30T11:26:12;7.40;;;4.67;;
2416;SDS011;1219;48.736;9.330;2023-09-30T11:28:43;6.33;;;4.47;;
2416;SDS011;1219;48.736;9.330;2023-09-30T11:31:12;5.40;;;4.50;;
2416;SDS011;1219;48.736;9.330;2023-09-30T11:33:49;6.13;;;4.90;;
2416;SDS011;1219;48.736;9.330;2023-09-30T11:36:16;6.50;;;4.30;;
2416;SDS011;1219;48.736;9.330;2023-09-30T11:38:44;6.53;;;4.80;;
2416;SDS011;1219;48.736;9.330;2023-09-30T11:41:11;7.33;;;4.60;;
2416;SDS011;1219;48.736;9.330;2023-09-30T11:43:37;6.47;;;3.60;;
2416;SDS011;1219;48.736;9.330;2023-09-30T11:46:07;6.73;;;5.17;;
2416;SDS011;1219;48.736;9.330;2023-09-30T11:48:37;5.63;;;4.03;;
2416;SDS011;1219;48.736;9.330;2023-09-30T11:51:04;7.60;;;4.80;;
2416;SDS011;1219;48.736;9.330;2023-09-30T11:53:31;5.77;;;3.63;;
2416;SDS011;1219;48.736;9.330;2023-09-30T11:55:57;5.50;;;4.23;;
2416;SDS011;1219;48.736;9.330;2023-09-30T11:58:24;6.60;;;4.77;;
2416;SDS011;1219;48.736;9.330;2023-09-30T12:00:52;8.70;;;5.07;;
2416;SDS011;1219;48.736;9.330;2023-09-30T12:03:18;6.53;;;4.10;;
2416;SDS011;1219;48.736;9.330;2023-09-30T12:05:45;5.17;;;4.10;;
2416;SDS011;1219;48.736;9.330;2023-09-30T12:08:11;6.10;;;3.87;;
2416;SDS011;1219;48.736;9.330;2023-09-30T12:10:37;4.47;;;4.03;;
2416;SDS011;1219;48.736;9.330;2023-09-30T12:13:05;4.70;;;4.00;;
2416;SDS011;1219;48.736;9.330;2023-09-30T12:15:31;8.90;;;4.43;;
2416;SDS011;1219;48.736;9.330;2023-09-30T12:17:57;7.97;;;4.30;;
2416;SDS011;1219;48.736;9.330;2023-09-30T12:20:23;5.37;;;4.07;;
2416;SDS011;1219;48.736;9.330;2023-09-30T12:22:50;7.20;;;4.30;;
2416;SDS011;1219;48.736;9.330;2023-09-30T12:25:17;6.13;;;4.20;;
2416;SDS011;1219;48.736;9.330;2023-09-30T12:27:46;7.17;;;5.00;;
2416;SDS011;1219;48.736;9.330;2023-09-30T12:30:12;6.50;;;5.40;;
2416;SDS011;1219;48.736;9.330;2023-09-30T12:32:39;8.00;;;3.90;;
2416;SDS011;1219;48.736;9.330;2023-09-30T12:35:05;9.33;;;4.90;;
2416;SDS011;1219;48.736;9.330;2023-09-30T12:37:31;5.63;;;5.07;;
2416;SDS011;1219;48.736;9.330;2023-09-30T12:39:57;6.03;;;4.47;;
2416;SDS011;1219;48.736;9.330;2023-09-30T12:42:23;9.60;;;5.00;;
2416;SDS011;1219;48.736;9.330;2023-09-30T12:44:50;5.60;;;4.50;;
2416;SDS011;1219;48.736;9.330;2023-09-30T12:47:16;5.70;;;4.57;;
2416;SDS011;1219;48.736;9.330;2023-09-30T12:49:41;5.70;;;4.03;;
2416;SDS011;1219;48.736;9.330;2023-09-30T12:52:07;5.80;;;4.33;;
2416;SDS011;1219;48.736;9.330;2023-09-30T12:54:33;5.37;;;4.40;;
2416;SDS011;1219;48.736;9.330;2023-09-30T12:56:59;4.93;;;4.00;;
2416;SDS011;1219;48.736;9.330;2023-09-30T12:59:25;7.77;;;4.93;;
2416;SDS011;1219;48.736;9.330;2023-09-30T13:01:51;10.87;;;5.90;;
2416;SDS011;1219;48.736;9.330;2023-09-30T13:04:18;7.33;;;4.70;;
2416;SDS011;1219;48.736;9.330;2023-09-30T13:06:44;5.80;;;5.20;;
2416;SDS011;1219;48.736;9.330;2023-09-30T13:09:10;7.23;;;5.00;;
2416;SDS011;1219;48.736;9.330;2023-09-30T13:11:37;8.30;;;4.90;;
2416;SDS011;1219;48.736;9.330;2023-09-30T13:14:03;7.20;;;4.60;;
2416;SDS011;1219;48.736;9.330;2023-09-30T13:16:29;5.83;;;4.60;;
2416;SDS011;1219;48.736;9.330;2023-09-30T13:18:55;6.03;;;4.73;;
2416;SDS011;1219;48.736;9.330;2023-09-30T13:21:21;7.27;;;5.50;;
2416;SDS011;1219;48.736;9.330;2023-09-30T13:23:47;4.37;;;4.00;;
2416;SDS011;1219;48.736;9.330;2023-09-30T13:26:13;5.93;;;3.97;;
2416;SDS011;1219;48.736;9.330;2023-09-30T13:28:39;6.07;;;4.80;;
2416;SDS011;1219;48.736;9.330;2023-09-30T13:31:05;4.60;;;4.20;;
2416;SDS011;1219;48.736;9.330;2023-09-30T13:33:30;6.60;;;4.10;;
2416;SDS011;1219;48.736;9.330;2023-09-30T13:35:56;4.87;;;4.37;;
2416;SDS011;1219;48.736;9.330;2023-09-30T13:38:23;6.03;;;5.03;;
2416;SDS011;1219;48.736;9.330;2023-09-30T13:40:49;8.93;;;4.60;;
2416;SDS011;1219;48.736;9.330;2023-09-30T13:43:15;5.80;;;4.60;;
2416;SDS011;1219;48.736;9.330;2023-09-30T13:45:41;5.87;;;5.27;;
2416;SDS011;1219;48.736;9.330;2023-09-30T13:48:07;7.80;;;4.50;;
2416;SDS011;1219;48.736;9.330;2023-09-30T13:50:33;4.67;;;4.00;;
2416;SDS011;1219;48.736;9.330;2023-09-30T13:52:59;5.10;;;4.00;;
2416;SDS011;1219;48.736;9.330;2023-09-30T13:55:26;5.03;;;4.20;;
2416;SDS011;1219;48.736;9.330;2023-09-30T13:57:52;6.10;;;3.97;;
2416;SDS011;1219;48.736;9.330;2023-09-30T14:00:18;5.50;;;4.20;;
2416;SDS011;1219;48.736;9.330;2023-09-30T14:02:44;5.40;;;4.50;;
2416;SDS011;1219;48.736;9.330;2023-09-30T14:05:10;6.43;;;4.30;;
2416;SDS011;1219;48.736;9.330;2023-09-30T14:07:38;5.23;;;4.73;;
2416;SDS011;1219;48.736;9.330;2023-09-30T14:10:05;6.90;;;4.17;;
2416;SDS011;1219;48.736;9.330;2023-09-30T14:12:31;6.93;;;4.70;;
2416;SDS011;1219;48.736;9.330;2023-09-30T14:14:57;7.93;;;4.83;;
2416;SDS011;1219;48.736;9.330;2023-09-30T14:17:23;6.57;;;4.53;;
2416;SDS011;1219;48.736;9.330;2023-09-30T14:19:50;6.27;;;4.33;;
2416;SDS011;1219;48.736;9.330;2023-09-30T14:22:16;4.70;;;4.20;;
2416;SDS011;1219;48.736;9.330;2023-09-30T14:24:43;10.47;;;5.03;;
2416;SDS011;1219;48.736;9.330;2023-09-30T14:27:10;6.70;;;5.00;;
2416;SDS011;1219;48.736;9.330;2023-09-30T14:29:36;6.60;;;4.90;;
2416;SDS011;1219;48.736;9.330;2023-09-30T14:32:02;6.40;;;4.23;;
2416;SDS011;1219;48.736;9.330;2023-09-30T14:34:28;5.20;;;4.20;;
2416;SDS011;1219;48.736;9.330;2023-09-30T14:36:54;6.93;;;4.57;;
2416;SDS011;1219;48.736;9.330;2023-09-30T14:39:20;8.00;;;4.33;;
2416;SDS011;1219;48.736;9.330;2023-09-30T14:41:46;6.10;;;4.27;;
2416;SDS011;1219;48.736;9.330;2023-09-30T14:46:43;6.57;;;4.10;;
2416;SDS011;1219;48.736;9.330;2023-09-30T14:49:10;5.93;;;4.23;;
2416;SDS011;1219;48.736;9.330;2023-09-30T14:51:36;4.43;;;3.67;;
2416;SDS011;1219;48.736;9.330;2023-09-30T14:54:03;7.03;;;4.30;;
2416;SDS011;1219;48.736;9.330;2023-09-30T14:56:29;8.60;;;4.93;;
2416;SDS011;1219;48.736;9.330;2023-09-30T14:58:55;9.93;;;6.13;;
2416;SDS011;1219;48.736;9.330;2023-09-30T15:01:21;7.30;;;4.70;;
2416;SDS011;1219;48.736;9.330;2023-09-30T15:03:47;6.77;;;4.20;;
2416;SDS011;1219;48.736;9.330;2023-09-30T15:06:13;6.37;;;4.07;;
2416;SDS011;1219;48.736;9.330;2023-09-30T15:08:39;9.70;;;4.33;;
2416;SDS011;1219;48.736;9.330;2023-09-30T15:11:05;5.93;;;4.23;;
2416;SDS011;1219;48.736;9.330;2023-09-30T15:13:31;4.10;;;3.60;;
2416;SDS011;1219;48.736;9.330;2023-09-30T15:15:57;5.63;;;4.40;;
2416;SDS011;1219;48.736;9.330;2023-09-30T15:18:23;6.17;;;3.73;;
2416;SDS011;1219;48.736;9.330;2023-09-30T15:20:49;6.07;;;4.30;;
2416;SDS011;1219;48.736;9.330;2023-09-30T15:23:15;9.67;;;4.07;;
2416;SDS011;1219;48.736;9.330;2023-09-30T15:25:42;7.47;;;4.33;;
2416;SDS011;1219;48.736;9.330;2023-09-30T15:28:08;8.40;;;4.67;;
2416;SDS011;1219;48.736;9.330;2023-09-30T15:30:34;6.30;;;3.90;;
2416;SDS011;1219;48.736;9.330;2023-09-30T15:33:00;4.87;;;3.37;;
2416;SDS011;1219;48.736;9.330;2023-09-30T15:35:29;6.93;;;4.37;;